sensor_id;sensor_type;location;lat;lon;timestamp;temperature;humidity
1405;DHT22;697;51.114;6.542;2022-09-09T00:00:19;20.10;83.90
1405;DHT22;697;51.114;6.542;2022-09-09T00:02:53;20.10;83.60
1405;DHT22;697;51.114;6.542;2022-09-09T00:05:28;20.10;83.50
1405;DHT22;697;51.114;6.542;2022-09-09T00:07:59;20.10;83.60
1405;DHT22;697;51.114;6.542;2022-09-09T00:10:30;20.10;83.60
1405;DHT22;697;51.114;6.542;2022-09-09T00:13:05;20.10;83.30
1405;DHT22;697;51.114;6.542;2022-09-09T00:15:39;20.10;83.10
1405;DHT22;697;51.114;6.542;2022-09-09T00:18:17;20.10;83.10
1405;DHT22;697;51.114;6.542;2022-09-09T00:20:49;20.10;83.20
1405;DHT22;697;51.114;6.542;2022-09-09T00:23:23;20.00;83.30
1405;DHT22;697;51.114;6.542;2022-09-09T00:25:58;20.00;83.50
1405;DHT22;697;51.114;6.542;2022-09-09T00:28:28;20.00;83.80
1405;DHT22;697;51.114;6.542;2022-09-09T00:30:59;20.00;84.00
1405;DHT22;697;51.114;6.542;2022-09-09T00:33:27;20.00;84.00
1405;DHT22;697;51.114;6.542;2022-09-09T00:35:57;19.90;83.80
1405;DHT22;697;51.114;6.542;2022-09-09T00:38:28;19.90;83.60
1405;DHT22;697;51.114;6.542;2022-09-09T00:41:03;19.90;83.50
1405;DHT22;697;51.114;6.542;2022-09-09T00:43:36;19.90;83.50
1405;DHT22;697;51.114;6.542;2022-09-09T00:46:26;19.90;83.30
1405;DHT22;697;51.114;6.542;2022-09-09T00:49:04;19.90;83.50
1405;DHT22;697;51.114;6.542;2022-09-09T00:51:43;19.90;83.80
1405;DHT22;697;51.114;6.542;2022-09-09T00:54:28;19.90;83.80
1405;DHT22;697;51.114;6.542;2022-09-09T00:57:10;19.90;84.10
1405;DHT22;697;51.114;6.542;2022-09-09T00:59:46;19.90;84.20
1405;DHT22;697;51.114;6.542;2022-09-09T01:02:19;19.90;84.30
1405;DHT22;697;51.114;6.542;2022-09-09T01:04:48;19.80;84.20
1405;DHT22;697;51.114;6.542;2022-09-09T01:07:17;19.80;84.10
1405;DHT22;697;51.114;6.542;2022-09-09T01:09:54;19.70;83.90
1405;DHT22;697;51.114;6.542;2022-09-09T01:12:29;19.70;84.00
1405;DHT22;697;51.114;6.542;2022-09-09T01:15:08;19.70;84.10
1405;DHT22;697;51.114;6.542;2022-09-09T01:17:48;19.70;84.20
1405;DHT22;697;51.114;6.542;2022-09-09T01:20:19;19.70;84.50
1405;DHT22;697;51.114;6.542;2022-09-09T01:23:03;19.60;84.40
1405;DHT22;697;51.114;6.542;2022-09-09T01:26:11;19.60;84.50
1405;DHT22;697;51.114;6.542;2022-09-09T01:28:43;19.60;84.30
1405;DHT22;697;51.114;6.542;2022-09-09T01:31:17;19.60;84.30
1405;DHT22;697;51.114;6.542;2022-09-09T01:33:44;19.60;84.20
1405;DHT22;697;51.114;6.542;2022-09-09T01:36:15;19.50;83.90
1405;DHT22;697;51.114;6.542;2022-09-09T01:38:43;19.60;84.10
1405;DHT22;697;51.114;6.542;2022-09-09T01:41:11;19.50;84.00
1405;DHT22;697;51.114;6.542;2022-09-09T01:43:38;19.50;83.90
1405;DHT22;697;51.114;6.542;2022-09-09T01:46:05;19.40;83.50
1405;DHT22;697;51.114;6.542;2022-09-09T01:48:33;19.40;83.50
1405;DHT22;697;51.114;6.542;2022-09-09T01:51:00;19.40;83.80
1405;DHT22;697;51.114;6.542;2022-09-09T01:53:26;19.30;84.20
1405;DHT22;697;51.114;6.542;2022-09-09T01:56:01;19.20;84.20
1405;DHT22;697;51.114;6.542;2022-09-09T01:58:37;19.20;84.60
1405;DHT22;697;51.114;6.542;2022-09-09T02:01:15;19.20;84.70
1405;DHT22;697;51.114;6.542;2022-09-09T02:03:48;19.10;85.00
1405;DHT22;697;51.114;6.542;2022-09-09T02:06:26;19.10;85.40
1405;DHT22;697;51.114;6.542;2022-09-09T02:08:56;19.10;85.50
1405;DHT22;697;51.114;6.542;2022-09-09T02:11:24;19.10;85.90
1405;DHT22;697;51.114;6.542;2022-09-09T02:13:57;19.10;86.20
1405;DHT22;697;51.114;6.542;2022-09-09T02:16:28;19.00;86.10
1405;DHT22;697;51.114;6.542;2022-09-09T02:19:01;19.00;86.00
1405;DHT22;697;51.114;6.542;2022-09-09T02:21:30;18.90;86.10
1405;DHT22;697;51.114;6.542;2022-09-09T02:24:03;18.80;86.30
1405;DHT22;697;51.114;6.542;2022-09-09T02:26:31;18.80;87.00
1405;DHT22;697;51.114;6.542;2022-09-09T02:29:03;18.80;87.00
1405;DHT22;697;51.114;6.542;2022-09-09T02:31:31;18.70;87.70
1405;DHT22;697;51.114;6.542;2022-09-09T02:34:01;18.70;88.10
1405;DHT22;697;51.114;6.542;2022-09-09T02:36:32;18.70;88.40
1405;DHT22;697;51.114;6.542;2022-09-09T02:39:01;18.70;88.20
1405;DHT22;697;51.114;6.542;2022-09-09T02:41:32;18.70;88.60
1405;DHT22;697;51.114;6.542;2022-09-09T02:43:59;18.70;88.70
1405;DHT22;697;51.114;6.542;2022-09-09T02:46:45;18.70;88.80
1405;DHT22;697;51.114;6.542;2022-09-09T02:49:18;18.70;89.10
1405;DHT22;697;51.114;6.542;2022-09-09T02:51:53;18.70;89.10
1405;DHT22;697;51.114;6.542;2022-09-09T02:54:28;18.70;89.10
1405;DHT22;697;51.114;6.542;2022-09-09T02:57:00;18.70;89.20
1405;DHT22;697;51.114;6.542;2022-09-09T02:59:29;18.70;89.40
1405;DHT22;697;51.114;6.542;2022-09-09T03:01:57;18.70;89.80
1405;DHT22;697;51.114;6.542;2022-09-09T03:04:24;18.70;89.70
1405;DHT22;697;51.114;6.542;2022-09-09T03:06:51;18.70;89.50
1405;DHT22;697;51.114;6.542;2022-09-09T03:09:18;18.70;89.60
1405;DHT22;697;51.114;6.542;2022-09-09T03:11:44;18.70;89.60
1405;DHT22;697;51.114;6.542;2022-09-09T03:14:11;18.70;89.60
1405;DHT22;697;51.114;6.542;2022-09-09T03:16:38;18.70;89.70
1405;DHT22;697;51.114;6.542;2022-09-09T03:19:06;18.70;89.50
1405;DHT22;697;51.114;6.542;2022-09-09T03:21:33;18.70;89.30
1405;DHT22;697;51.114;6.542;2022-09-09T03:23:59;18.70;89.30
1405;DHT22;697;51.114;6.542;2022-09-09T03:26:28;18.70;89.50
1405;DHT22;697;51.114;6.542;2022-09-09T03:28:55;18.70;89.50
1405;DHT22;697;51.114;6.542;2022-09-09T03:31:22;18.70;89.70
1405;DHT22;697;51.114;6.542;2022-09-09T03:33:49;18.60;89.60
1405;DHT22;697;51.114;6.542;2022-09-09T03:36:17;18.70;89.70
1405;DHT22;697;51.114;6.542;2022-09-09T03:38:44;18.60;89.70
1405;DHT22;697;51.114;6.542;2022-09-09T03:41:11;18.60;89.70
1405;DHT22;697;51.114;6.542;2022-09-09T03:43:38;18.60;89.70
1405;DHT22;697;51.114;6.542;2022-09-09T03:46:05;18.60;89.80
1405;DHT22;697;51.114;6.542;2022-09-09T03:48:31;18.60;90.10
1405;DHT22;697;51.114;6.542;2022-09-09T03:50:58;18.60;90.20
1405;DHT22;697;51.114;6.542;2022-09-09T03:53:28;18.60;90.20
1405;DHT22;697;51.114;6.542;2022-09-09T03:55:56;18.60;90.10
1405;DHT22;697;51.114;6.542;2022-09-09T03:58:25;18.60;90.20
1405;DHT22;697;51.114;6.542;2022-09-09T04:00:54;18.60;90.20
1405;DHT22;697;51.114;6.542;2022-09-09T04:03:21;18.60;90.20
1405;DHT22;697;51.114;6.542;2022-09-09T04:05:48;18.60;90.40
1405;DHT22;697;51.114;6.542;2022-09-09T04:08:15;18.60;90.40
1405;DHT22;697;51.114;6.542;2022-09-09T04:10:44;18.60;90.40
1405;DHT22;697;51.114;6.542;2022-09-09T04:13:12;18.60;90.30
1405;DHT22;697;51.114;6.542;2022-09-09T04:15:40;18.70;90.30
1405;DHT22;697;51.114;6.542;2022-09-09T04:18:07;18.70;90.30
1405;DHT22;697;51.114;6.542;2022-09-09T04:20:34;18.70;90.30
1405;DHT22;697;51.114;6.542;2022-09-09T04:23:02;18.70;90.30
1405;DHT22;697;51.114;6.542;2022-09-09T04:25:29;18.60;90.10
1405;DHT22;697;51.114;6.542;2022-09-09T04:27:57;18.60;90.10
1405;DHT22;697;51.114;6.542;2022-09-09T04:30:25;18.60;90.30
1405;DHT22;697;51.114;6.542;2022-09-09T04:32:52;18.60;90.10
1405;DHT22;697;51.114;6.542;2022-09-09T04:35:19;18.60;90.10
1405;DHT22;697;51.114;6.542;2022-09-09T04:37:46;18.50;90.00
1405;DHT22;697;51.114;6.542;2022-09-09T04:40:14;18.50;90.20
1405;DHT22;697;51.114;6.542;2022-09-09T04:42:40;18.60;90.50
1405;DHT22;697;51.114;6.542;2022-09-09T04:45:10;18.50;90.20
1405;DHT22;697;51.114;6.542;2022-09-09T04:47:39;18.50;90.40
1405;DHT22;697;51.114;6.542;2022-09-09T04:50:07;18.60;90.30
1405;DHT22;697;51.114;6.542;2022-09-09T04:55:04;18.60;90.30
1405;DHT22;697;51.114;6.542;2022-09-09T04:57:31;18.60;90.30
1405;DHT22;697;51.114;6.542;2022-09-09T04:59:58;18.60;90.10
1405;DHT22;697;51.114;6.542;2022-09-09T05:02:27;18.70;90.10
1405;DHT22;697;51.114;6.542;2022-09-09T05:04:53;18.70;90.10
1405;DHT22;697;51.114;6.542;2022-09-09T05:07:21;18.70;90.20
1405;DHT22;697;51.114;6.542;2022-09-09T05:09:48;18.70;90.00
1405;DHT22;697;51.114;6.542;2022-09-09T05:12:15;18.70;90.00
1405;DHT22;697;51.114;6.542;2022-09-09T05:14:43;18.70;90.00
1405;DHT22;697;51.114;6.542;2022-09-09T05:17:10;18.80;89.90
1405;DHT22;697;51.114;6.542;2022-09-09T05:19:40;18.80;90.00
1405;DHT22;697;51.114;6.542;2022-09-09T05:22:06;18.80;90.00
1405;DHT22;697;51.114;6.542;2022-09-09T05:24:33;18.80;89.80
1405;DHT22;697;51.114;6.542;2022-09-09T05:27:00;18.80;89.60
1405;DHT22;697;51.114;6.542;2022-09-09T05:29:28;18.80;89.50
1405;DHT22;697;51.114;6.542;2022-09-09T05:31:54;18.90;89.40
1405;DHT22;697;51.114;6.542;2022-09-09T05:34:21;18.90;88.90
1405;DHT22;697;51.114;6.542;2022-09-09T05:36:49;19.00;88.70
1405;DHT22;697;51.114;6.542;2022-09-09T05:39:16;18.90;88.50
1405;DHT22;697;51.114;6.542;2022-09-09T05:41:43;19.00;88.50
1405;DHT22;697;51.114;6.542;2022-09-09T05:44:10;19.00;88.30
1405;DHT22;697;51.114;6.542;2022-09-09T05:46:36;19.10;88.20
1405;DHT22;697;51.114;6.542;2022-09-09T05:49:03;19.10;88.30
1405;DHT22;697;51.114;6.542;2022-09-09T05:51:31;19.10;88.20
1405;DHT22;697;51.114;6.542;2022-09-09T05:53:59;19.10;88.10
1405;DHT22;697;51.114;6.542;2022-09-09T05:56:27;19.10;87.70
1405;DHT22;697;51.114;6.542;2022-09-09T05:58:55;19.10;87.40
1405;DHT22;697;51.114;6.542;2022-09-09T06:01:23;19.20;86.60
1405;DHT22;697;51.114;6.542;2022-09-09T06:03:51;19.10;86.00
1405;DHT22;697;51.114;6.542;2022-09-09T06:06:19;19.10;86.20
1405;DHT22;697;51.114;6.542;2022-09-09T06:08:47;19.10;85.70
1405;DHT22;697;51.114;6.542;2022-09-09T06:11:18;19.10;85.70
1405;DHT22;697;51.114;6.542;2022-09-09T06:13:45;19.00;84.40
1405;DHT22;697;51.114;6.542;2022-09-09T06:16:14;19.00;84.70
1405;DHT22;697;51.114;6.542;2022-09-09T06:18:42;19.00;84.70
1405;DHT22;697;51.114;6.542;2022-09-09T06:21:11;19.00;85.00
1405;DHT22;697;51.114;6.542;2022-09-09T06:23:41;19.00;85.10
1405;DHT22;697;51.114;6.542;2022-09-09T06:26:11;19.00;84.60
1405;DHT22;697;51.114;6.542;2022-09-09T06:28:39;19.00;84.50
1405;DHT22;697;51.114;6.542;2022-09-09T06:31:09;19.10;84.70
1405;DHT22;697;51.114;6.542;2022-09-09T06:33:38;19.20;83.60
1405;DHT22;697;51.114;6.542;2022-09-09T06:36:07;19.20;83.20
1405;DHT22;697;51.114;6.542;2022-09-09T06:38:36;19.30;82.90
1405;DHT22;697;51.114;6.542;2022-09-09T06:41:03;19.50;83.00
1405;DHT22;697;51.114;6.542;2022-09-09T06:43:31;19.60;83.00
1405;DHT22;697;51.114;6.542;2022-09-09T06:46:01;19.70;81.40
1405;DHT22;697;51.114;6.542;2022-09-09T06:48:28;19.70;80.90
1405;DHT22;697;51.114;6.542;2022-09-09T06:51:03;19.80;81.00
1405;DHT22;697;51.114;6.542;2022-09-09T06:53:31;19.80;80.80
1405;DHT22;697;51.114;6.542;2022-09-09T06:55:59;19.80;79.80
1405;DHT22;697;51.114;6.542;2022-09-09T06:58:26;19.90;79.10
1405;DHT22;697;51.114;6.542;2022-09-09T07:01:02;19.80;78.50
1405;DHT22;697;51.114;6.542;2022-09-09T07:03:28;19.90;77.90
1405;DHT22;697;51.114;6.542;2022-09-09T07:05:55;19.80;77.70
1405;DHT22;697;51.114;6.542;2022-09-09T07:08:22;19.80;78.30
1405;DHT22;697;51.114;6.542;2022-09-09T07:10:50;19.70;78.80
1405;DHT22;697;51.114;6.542;2022-09-09T07:13:19;19.70;79.20
1405;DHT22;697;51.114;6.542;2022-09-09T07:15:50;19.80;78.40
1405;DHT22;697;51.114;6.542;2022-09-09T07:18:18;19.90;78.30
1405;DHT22;697;51.114;6.542;2022-09-09T07:20:52;20.00;77.60
1405;DHT22;697;51.114;6.542;2022-09-09T07:23:20;20.10;76.50
1405;DHT22;697;51.114;6.542;2022-09-09T07:25:47;20.10;75.30
1405;DHT22;697;51.114;6.542;2022-09-09T07:28:14;20.20;75.00
1405;DHT22;697;51.114;6.542;2022-09-09T07:30:41;20.10;74.50
1405;DHT22;697;51.114;6.542;2022-09-09T07:33:08;20.10;74.50
1405;DHT22;697;51.114;6.542;2022-09-09T07:35:37;20.20;74.50
1405;DHT22;697;51.114;6.542;2022-09-09T07:38:03;20.20;74.50
1405;DHT22;697;51.114;6.542;2022-09-09T07:40:32;20.40;74.50
1405;DHT22;697;51.114;6.542;2022-09-09T07:42:59;20.50;73.70
1405;DHT22;697;51.114;6.542;2022-09-09T07:45:26;20.70;72.50
1405;DHT22;697;51.114;6.542;2022-09-09T07:47:54;20.80;70.70
1405;DHT22;697;51.114;6.542;2022-09-09T07:50:22;20.90;70.50
1405;DHT22;697;51.114;6.542;2022-09-09T07:52:50;21.10;69.90
1405;DHT22;697;51.114;6.542;2022-09-09T07:55:17;21.30;69.40
1405;DHT22;697;51.114;6.542;2022-09-09T07:57:43;21.40;67.10
1405;DHT22;697;51.114;6.542;2022-09-09T08:00:12;21.50;65.90
1405;DHT22;697;51.114;6.542;2022-09-09T08:02:40;21.60;65.00
1405;DHT22;697;51.114;6.542;2022-09-09T08:05:07;21.70;65.20
1405;DHT22;697;51.114;6.542;2022-09-09T08:07:34;21.70;65.60
1405;DHT22;697;51.114;6.542;2022-09-09T08:10:02;21.70;65.50
1405;DHT22;697;51.114;6.542;2022-09-09T08:12:29;21.70;64.90
1405;DHT22;697;51.114;6.542;2022-09-09T08:14:57;21.80;65.10
1405;DHT22;697;51.114;6.542;2022-09-09T08:17:24;21.90;64.50
1405;DHT22;697;51.114;6.542;2022-09-09T08:19:51;21.90;63.80
1405;DHT22;697;51.114;6.542;2022-09-09T08:22:17;22.10;63.80
1405;DHT22;697;51.114;6.542;2022-09-09T08:24:44;22.40;62.70
1405;DHT22;697;51.114;6.542;2022-09-09T08:27:13;22.70;61.90
1405;DHT22;697;51.114;6.542;2022-09-09T08:29:40;22.80;61.00
1405;DHT22;697;51.114;6.542;2022-09-09T08:32:07;22.90;61.20
1405;DHT22;697;51.114;6.542;2022-09-09T08:34:34;22.90;59.40
1405;DHT22;697;51.114;6.542;2022-09-09T08:37:01;23.00;59.30
1405;DHT22;697;51.114;6.542;2022-09-09T08:39:28;23.10;59.50
1405;DHT22;697;51.114;6.542;2022-09-09T08:45:12;23.30;58.40
1405;DHT22;697;51.114;6.542;2022-09-09T08:47:48;23.40;57.40
1405;DHT22;697;51.114;6.542;2022-09-09T08:50:22;23.40;57.20
1405;DHT22;697;51.114;6.542;2022-09-09T08:52:55;23.10;56.60
1405;DHT22;697;51.114;6.542;2022-09-09T08:55:34;22.90;57.10
1405;DHT22;697;51.114;6.542;2022-09-09T08:58:08;22.70;57.20
1405;DHT22;697;51.114;6.542;2022-09-09T09:00:44;22.60;58.70
1405;DHT22;697;51.114;6.542;2022-09-09T09:03:22;22.30;57.90
1405;DHT22;697;51.114;6.542;2022-09-09T09:06:00;22.10;57.80
1405;DHT22;697;51.114;6.542;2022-09-09T09:08:33;22.00;57.70
1405;DHT22;697;51.114;6.542;2022-09-09T09:11:03;21.90;58.20
1405;DHT22;697;51.114;6.542;2022-09-09T09:13:35;22.00;58.80
1405;DHT22;697;51.114;6.542;2022-09-09T09:16:26;21.90;57.90
1405;DHT22;697;51.114;6.542;2022-09-09T09:18:58;22.00;58.20
1405;DHT22;697;51.114;6.542;2022-09-09T09:21:32;22.10;57.40
1405;DHT22;697;51.114;6.542;2022-09-09T09:24:01;22.20;57.00
1405;DHT22;697;51.114;6.542;2022-09-09T09:26:33;22.20;57.60
1405;DHT22;697;51.114;6.542;2022-09-09T09:29:03;22.40;57.90
1405;DHT22;697;51.114;6.542;2022-09-09T09:31:36;22.50;58.10
1405;DHT22;697;51.114;6.542;2022-09-09T09:34:03;22.70;57.70
1405;DHT22;697;51.114;6.542;2022-09-09T09:36:34;22.90;56.70
1405;DHT22;697;51.114;6.542;2022-09-09T09:39:02;23.10;56.80
1405;DHT22;697;51.114;6.542;2022-09-09T09:41:32;23.30;55.70
1405;DHT22;697;51.114;6.542;2022-09-09T09:44:01;23.30;55.00
1405;DHT22;697;51.114;6.542;2022-09-09T09:46:29;23.50;54.70
1405;DHT22;697;51.114;6.542;2022-09-09T09:49:01;23.60;53.90
1405;DHT22;697;51.114;6.542;2022-09-09T09:51:30;23.80;53.50
1405;DHT22;697;51.114;6.542;2022-09-09T09:54:09;24.00;53.40
1405;DHT22;697;51.114;6.542;2022-09-09T09:56:40;24.20;53.00
1405;DHT22;697;51.114;6.542;2022-09-09T09:59:20;24.30;52.70
1405;DHT22;697;51.114;6.542;2022-09-09T10:01:47;24.40;52.30
1405;DHT22;697;51.114;6.542;2022-09-09T10:04:16;24.60;51.40
1405;DHT22;697;51.114;6.542;2022-09-09T10:06:46;24.70;51.00
1405;DHT22;697;51.114;6.542;2022-09-09T10:09:22;24.80;51.20
1405;DHT22;697;51.114;6.542;2022-09-09T10:11:56;24.70;51.10
1405;DHT22;697;51.114;6.542;2022-09-09T10:14:31;24.60;51.30
1405;DHT22;697;51.114;6.542;2022-09-09T10:17:14;24.70;51.30
1405;DHT22;697;51.114;6.542;2022-09-09T10:19:54;24.80;51.50
1405;DHT22;697;51.114;6.542;2022-09-09T10:22:27;24.90;51.70
1405;DHT22;697;51.114;6.542;2022-09-09T10:25:25;25.00;50.60
1405;DHT22;697;51.114;6.542;2022-09-09T10:28:17;25.40;50.20
1405;DHT22;697;51.114;6.542;2022-09-09T10:30:56;25.70;48.20
1405;DHT22;697;51.114;6.542;2022-09-09T10:33:30;25.80;47.70
1405;DHT22;697;51.114;6.542;2022-09-09T10:36:06;25.70;47.10
1405;DHT22;697;51.114;6.542;2022-09-09T10:38:39;25.50;47.50
1405;DHT22;697;51.114;6.542;2022-09-09T10:41:16;25.40;48.50
1405;DHT22;697;51.114;6.542;2022-09-09T10:44:17;25.20;49.80
1405;DHT22;697;51.114;6.542;2022-09-09T10:46:56;25.00;48.80
1405;DHT22;697;51.114;6.542;2022-09-09T10:49:37;24.80;50.10
1405;DHT22;697;51.114;6.542;2022-09-09T10:52:14;24.60;49.70
1405;DHT22;697;51.114;6.542;2022-09-09T10:54:51;24.40;49.50
1405;DHT22;697;51.114;6.542;2022-09-09T10:57:27;24.20;49.80
1405;DHT22;697;51.114;6.542;2022-09-09T10:59:58;23.90;51.10
1405;DHT22;697;51.114;6.542;2022-09-09T11:02:29;23.80;51.10
1405;DHT22;697;51.114;6.542;2022-09-09T11:05:00;23.70;51.90
1405;DHT22;697;51.114;6.542;2022-09-09T11:07:34;23.60;52.70
1405;DHT22;697;51.114;6.542;2022-09-09T11:10:06;23.70;52.50
1405;DHT22;697;51.114;6.542;2022-09-09T11:12:34;23.80;51.60
1405;DHT22;697;51.114;6.542;2022-09-09T11:15:06;23.90;52.00
1405;DHT22;697;51.114;6.542;2022-09-09T11:17:37;23.90;51.80
1405;DHT22;697;51.114;6.542;2022-09-09T11:20:11;24.00;51.70
1405;DHT22;697;51.114;6.542;2022-09-09T11:22:44;24.10;51.80
1405;DHT22;697;51.114;6.542;2022-09-09T11:25:16;24.20;52.10
1405;DHT22;697;51.114;6.542;2022-09-09T11:27:56;24.10;52.00
1405;DHT22;697;51.114;6.542;2022-09-09T11:30:32;23.90;52.80
1405;DHT22;697;51.114;6.542;2022-09-09T11:33:23;23.60;53.30
1405;DHT22;697;51.114;6.542;2022-09-09T11:36:02;23.50;55.20
1405;DHT22;697;51.114;6.542;2022-09-09T11:38:39;23.40;53.90
1405;DHT22;697;51.114;6.542;2022-09-09T11:41:10;23.20;54.30
1405;DHT22;697;51.114;6.542;2022-09-09T11:43:41;23.20;55.50
1405;DHT22;697;51.114;6.542;2022-09-09T11:46:09;23.30;55.40
1405;DHT22;697;51.114;6.542;2022-09-09T11:48:38;23.40;55.10
1405;DHT22;697;51.114;6.542;2022-09-09T11:51:10;23.90;56.10
1405;DHT22;697;51.114;6.542;2022-09-09T11:53:49;24.80;54.30
1405;DHT22;697;51.114;6.542;2022-09-09T11:56:25;26.00;51.30
1405;DHT22;697;51.114;6.542;2022-09-09T11:58:58;27.10;47.30
1405;DHT22;697;51.114;6.542;2022-09-09T12:01:40;27.90;44.70
1405;DHT22;697;51.114;6.542;2022-09-09T12:04:35;28.80;43.60
1405;DHT22;697;51.114;6.542;2022-09-09T12:07:05;30.00;40.30
1405;DHT22;697;51.114;6.542;2022-09-09T12:09:50;30.50;38.40
1405;DHT22;697;51.114;6.542;2022-09-09T12:12:30;31.00;36.80
1405;DHT22;697;51.114;6.542;2022-09-09T12:17:46;29.80;38.40
1405;DHT22;697;51.114;6.542;2022-09-09T12:20:16;29.80;39.80
1405;DHT22;697;51.114;6.542;2022-09-09T12:23:04;29.60;38.70
1405;DHT22;697;51.114;6.542;2022-09-09T12:25:54;29.00;40.00
1405;DHT22;697;51.114;6.542;2022-09-09T12:28:31;28.10;41.60
1405;DHT22;697;51.114;6.542;2022-09-09T12:31:06;27.60;43.70
1405;DHT22;697;51.114;6.542;2022-09-09T12:33:35;27.10;44.40
1405;DHT22;697;51.114;6.542;2022-09-09T12:36:04;26.80;45.40
1405;DHT22;697;51.114;6.542;2022-09-09T12:38:34;26.60;45.30
1405;DHT22;697;51.114;6.542;2022-09-09T12:41:04;26.10;46.20
1405;DHT22;697;51.114;6.542;2022-09-09T12:43:31;25.70;48.60
1405;DHT22;697;51.114;6.542;2022-09-09T12:46:00;25.40;49.00
1405;DHT22;697;51.114;6.542;2022-09-09T12:48:32;25.30;48.60
1405;DHT22;697;51.114;6.542;2022-09-09T12:51:01;25.30;50.20
1405;DHT22;697;51.114;6.542;2022-09-09T12:53:31;25.50;49.30
1405;DHT22;697;51.114;6.542;2022-09-09T12:56:01;25.70;48.60
1405;DHT22;697;51.114;6.542;2022-09-09T12:58:31;25.90;48.30
1405;DHT22;697;51.114;6.542;2022-09-09T13:00:59;25.90;48.00
1405;DHT22;697;51.114;6.542;2022-09-09T13:03:30;26.00;48.30
1405;DHT22;697;51.114;6.542;2022-09-09T13:05:58;26.10;47.80
1405;DHT22;697;51.114;6.542;2022-09-09T13:08:26;26.20;47.70
1405;DHT22;697;51.114;6.542;2022-09-09T13:10:55;26.60;47.20
1405;DHT22;697;51.114;6.542;2022-09-09T13:13:26;26.70;46.90
1405;DHT22;697;51.114;6.542;2022-09-09T13:15:58;26.90;46.80
1405;DHT22;697;51.114;6.542;2022-09-09T13:18:28;27.40;46.50
1405;DHT22;697;51.114;6.542;2022-09-09T13:20:55;28.10;44.20
1405;DHT22;697;51.114;6.542;2022-09-09T13:23:27;28.70;43.40
1405;DHT22;697;51.114;6.542;2022-09-09T13:25:56;28.50;42.40
1405;DHT22;697;51.114;6.542;2022-09-09T13:28:25;27.80;43.50
1405;DHT22;697;51.114;6.542;2022-09-09T13:31:00;27.10;45.10
1405;DHT22;697;51.114;6.542;2022-09-09T13:33:33;26.50;46.60
1405;DHT22;697;51.114;6.542;2022-09-09T13:36:02;25.70;49.20
1405;DHT22;697;51.114;6.542;2022-09-09T13:38:32;25.00;52.50
1405;DHT22;697;51.114;6.542;2022-09-09T13:41:01;24.40;55.70
1405;DHT22;697;51.114;6.542;2022-09-09T13:43:31;24.20;57.60
1405;DHT22;697;51.114;6.542;2022-09-09T13:46:23;24.50;59.60
1405;DHT22;697;51.114;6.542;2022-09-09T13:48:55;25.90;55.50
1405;DHT22;697;51.114;6.542;2022-09-09T13:51:34;27.40;51.70
1405;DHT22;697;51.114;6.542;2022-09-09T13:54:02;29.10;46.60
1405;DHT22;697;51.114;6.542;2022-09-09T13:56:30;30.80;43.40
1405;DHT22;697;51.114;6.542;2022-09-09T13:58:58;32.10;39.20
1405;DHT22;697;51.114;6.542;2022-09-09T14:01:24;32.90;37.00
1405;DHT22;697;51.114;6.542;2022-09-09T14:03:53;33.50;33.10
1405;DHT22;697;51.114;6.542;2022-09-09T14:06:21;33.10;33.50
1405;DHT22;697;51.114;6.542;2022-09-09T14:08:49;32.00;35.20
1405;DHT22;697;51.114;6.542;2022-09-09T14:11:17;31.30;36.70
1405;DHT22;697;51.114;6.542;2022-09-09T14:13:43;30.20;38.50
1405;DHT22;697;51.114;6.542;2022-09-09T14:16:10;29.00;40.80
1405;DHT22;697;51.114;6.542;2022-09-09T14:18:37;28.10;42.60
1405;DHT22;697;51.114;6.542;2022-09-09T14:21:04;27.30;44.60
1405;DHT22;697;51.114;6.542;2022-09-09T14:23:32;26.20;44.00
1405;DHT22;697;51.114;6.542;2022-09-09T14:25:59;25.10;45.70
1405;DHT22;697;51.114;6.542;2022-09-09T14:28:26;24.20;47.90
1405;DHT22;697;51.114;6.542;2022-09-09T14:30:53;23.50;50.00
1405;DHT22;697;51.114;6.542;2022-09-09T14:33:20;22.80;52.20
1405;DHT22;697;51.114;6.542;2022-09-09T14:35:47;22.20;56.20
1405;DHT22;697;51.114;6.542;2022-09-09T14:38:14;21.60;59.50
1405;DHT22;697;51.114;6.542;2022-09-09T14:40:45;21.00;64.80
1405;DHT22;697;51.114;6.542;2022-09-09T14:43:12;20.50;68.80
1405;DHT22;697;51.114;6.542;2022-09-09T14:45:39;20.30;69.80
1405;DHT22;697;51.114;6.542;2022-09-09T14:48:06;20.40;72.30
1405;DHT22;697;51.114;6.542;2022-09-09T14:50:33;20.70;73.90
1405;DHT22;697;51.114;6.542;2022-09-09T14:53:05;21.20;73.40
1405;DHT22;697;51.114;6.542;2022-09-09T14:55:32;21.70;72.40
1405;DHT22;697;51.114;6.542;2022-09-09T14:58:00;22.30;66.60
1405;DHT22;697;51.114;6.542;2022-09-09T15:00:27;23.20;65.30
1405;DHT22;697;51.114;6.542;2022-09-09T15:02:54;24.10;61.50
1405;DHT22;697;51.114;6.542;2022-09-09T15:05:21;24.90;58.40
1405;DHT22;697;51.114;6.542;2022-09-09T15:07:49;25.50;56.20
1405;DHT22;697;51.114;6.542;2022-09-09T15:10:17;25.80;55.20
1405;DHT22;697;51.114;6.542;2022-09-09T15:12:44;26.00;54.40
1405;DHT22;697;51.114;6.542;2022-09-09T15:15:13;25.90;54.90
1405;DHT22;697;51.114;6.542;2022-09-09T15:17:40;25.70;55.60
1405;DHT22;697;51.114;6.542;2022-09-09T15:20:08;25.50;56.60
1405;DHT22;697;51.114;6.542;2022-09-09T15:22:35;25.20;57.50
1405;DHT22;697;51.114;6.542;2022-09-09T15:25:03;24.90;58.30
1405;DHT22;697;51.114;6.542;2022-09-09T15:27:31;24.60;59.30
1405;DHT22;697;51.114;6.542;2022-09-09T15:29:57;24.40;60.40
1405;DHT22;697;51.114;6.542;2022-09-09T15:32:27;24.10;62.20
1405;DHT22;697;51.114;6.542;2022-09-09T15:34:54;23.90;64.00
1405;DHT22;697;51.114;6.542;2022-09-09T15:37:21;23.60;65.10
1405;DHT22;697;51.114;6.542;2022-09-09T15:39:47;23.30;66.50
1405;DHT22;697;51.114;6.542;2022-09-09T15:42:14;23.10;67.10
1405;DHT22;697;51.114;6.542;2022-09-09T15:44:41;23.00;68.60
1405;DHT22;697;51.114;6.542;2022-09-09T15:47:11;22.90;69.40
1405;DHT22;697;51.114;6.542;2022-09-09T15:49:39;22.70;69.90
1405;DHT22;697;51.114;6.542;2022-09-09T15:52:08;22.70;68.40
1405;DHT22;697;51.114;6.542;2022-09-09T16:18:12;21.10;79.00
1405;DHT22;697;51.114;6.542;2022-09-09T16:20:40;21.00;80.00
1405;DHT22;697;51.114;6.542;2022-09-09T16:23:07;21.00;79.80
1405;DHT22;697;51.114;6.542;2022-09-09T16:25:34;20.90;80.90
1405;DHT22;697;51.114;6.542;2022-09-09T16:28:01;20.80;81.80
1405;DHT22;697;51.114;6.542;2022-09-09T17:00:46;23.00;73.50
1405;DHT22;697;51.114;6.542;2022-09-09T17:03:14;22.90;73.90
1405;DHT22;697;51.114;6.542;2022-09-09T17:05:41;22.70;73.60
1405;DHT22;697;51.114;6.542;2022-09-09T17:08:10;22.60;74.20
1405;DHT22;697;51.114;6.542;2022-09-09T17:10:40;22.50;74.60
1405;DHT22;697;51.114;6.542;2022-09-09T17:13:07;22.30;74.20
1405;DHT22;697;51.114;6.542;2022-09-09T17:15:39;22.20;74.90
1405;DHT22;697;51.114;6.542;2022-09-09T17:18:09;22.00;75.60
1405;DHT22;697;51.114;6.542;2022-09-09T17:20:36;21.90;76.50
1405;DHT22;697;51.114;6.542;2022-09-09T17:23:03;21.80;75.90
1405;DHT22;697;51.114;6.542;2022-09-09T17:25:30;21.70;76.80
1405;DHT22;697;51.114;6.542;2022-09-09T17:27:57;21.60;76.90
1405;DHT22;697;51.114;6.542;2022-09-09T17:30:25;21.40;77.10
1405;DHT22;697;51.114;6.542;2022-09-09T17:32:53;21.30;77.40
1405;DHT22;697;51.114;6.542;2022-09-09T17:35:21;21.20;77.90
1405;DHT22;697;51.114;6.542;2022-09-09T17:37:48;21.10;77.90
1405;DHT22;697;51.114;6.542;2022-09-09T17:40:14;21.00;78.90